createdAt,value
2023-07-19T00:01:34.371Z,99950.09
2023-07-19T00:04:03.760Z,99947.81
2023-07-19T00:06:31.873Z,99945.88
2023-07-19T00:09:01.270Z,99948.97
2023-07-19T00:11:30.400Z,99943.06
2023-07-19T00:13:58.361Z,99939.91
2023-07-19T00:16:29.285Z,99942.00
2023-07-19T00:19:00.089Z,99941.19
2023-07-19T00:21:34.593Z,99942.59
2023-07-19T00:24:04.974Z,99934.91
2023-07-19T00:26:32.928Z,99937.56
2023-07-19T00:29:01.838Z,99938.53
2023-07-19T00:31:29.806Z,99929.59
2023-07-19T00:33:59.207Z,99925.91
2023-07-19T00:36:27.421Z,99931.88
2023-07-19T00:38:56.057Z,99927.34
2023-07-19T00:41:26.317Z,99933.84
2023-07-19T00:43:54.151Z,99930.19
2023-07-19T00:46:22.846Z,99927.03
2023-07-19T00:48:51.446Z,99926.03
2023-07-19T00:51:21.389Z,99917.38
2023-07-19T00:53:51.249Z,99917.00
2023-07-19T00:56:21.260Z,99920.44
2023-07-19T00:58:52.312Z,99914.38
2023-07-19T01:01:23.361Z,99917.47
2023-07-19T01:03:52.385Z,99922.34
2023-07-19T01:06:21.175Z,99920.47
2023-07-19T01:08:51.187Z,99916.56
2023-07-19T01:11:19.609Z,99917.63
2023-07-19T01:13:56.517Z,99926.78
2023-07-19T01:16:26.588Z,99921.31
2023-07-19T01:18:54.700Z,99912.66
2023-07-19T01:21:25.157Z,99917.09
2023-07-19T01:23:56.977Z,99910.16
2023-07-19T01:26:25.942Z,99909.00
2023-07-19T01:28:57.469Z,99914.09
2023-07-19T01:31:26.157Z,99912.56
2023-07-19T01:33:54.138Z,99909.03
2023-07-19T01:36:22.878Z,99918.97
2023-07-19T01:38:51.594Z,99910.53
2023-07-19T01:41:21.308Z,99912.38
2023-07-19T01:43:49.935Z,99907.13
2023-07-19T01:46:18.242Z,99897.00
2023-07-19T01:48:47.221Z,99898.66
2023-07-19T01:51:15.179Z,99892.44
2023-07-19T01:53:43.292Z,99893.81
2023-07-19T01:56:12.182Z,99897.97
2023-07-19T01:58:41.698Z,99892.97
2023-07-19T02:01:10.452Z,99880.75
2023-07-19T02:03:38.461Z,99888.38
2023-07-19T02:06:07.000Z,99884.66
2023-07-19T02:08:35.494Z,99880.13
2023-07-19T02:11:03.546Z,99885.97
2023-07-19T02:13:31.724Z,99875.91
2023-07-19T02:16:01.323Z,99868.91
2023-07-19T02:18:29.612Z,99869.91
2023-07-19T02:20:58.168Z,99861.84
2023-07-19T02:23:26.235Z,99855.72
2023-07-19T02:25:56.389Z,99851.72
2023-07-19T02:28:24.385Z,99845.53
2023-07-19T02:30:52.362Z,99844.38
2023-07-19T02:33:22.925Z,99840.16
2023-07-19T02:35:55.870Z,99843.59
2023-07-19T02:38:24.746Z,99835.69
2023-07-19T02:40:52.800Z,99836.75
2023-07-19T02:43:21.316Z,99831.25
2023-07-19T02:45:49.801Z,99822.75
2023-07-19T02:48:17.931Z,99829.63
2023-07-19T02:50:48.778Z,99834.63
2023-07-19T02:53:18.456Z,99842.63
2023-07-19T02:55:46.694Z,99833.53
2023-07-19T02:58:16.838Z,99836.09
2023-07-19T03:00:45.610Z,99838.53
2023-07-19T03:03:14.954Z,99833.38
2023-07-19T03:05:47.617Z,99825.13
2023-07-19T03:08:16.480Z,99825.94
2023-07-19T03:10:44.847Z,99827.28
2023-07-19T03:13:13.470Z,99830.03
2023-07-19T03:15:47.725Z,99821.13
2023-07-19T03:18:16.060Z,99823.28
2023-07-19T03:20:45.288Z,99820.13
2023-07-19T03:23:14.950Z,99820.03
2023-07-19T03:25:43.349Z,99819.00
2023-07-19T03:28:11.422Z,99812.94
2023-07-19T03:30:40.407Z,99812.88
2023-07-19T03:33:09.336Z,99823.47
2023-07-19T03:35:37.384Z,99814.09
2023-07-19T03:38:05.822Z,99809.88
2023-07-19T03:40:35.235Z,99811.50
2023-07-19T03:43:04.475Z,99814.00
2023-07-19T03:45:32.469Z,99813.34
2023-07-19T03:48:00.947Z,99811.41
2023-07-19T03:50:31.634Z,99816.78
2023-07-19T03:52:59.599Z,99819.53
2023-07-19T03:55:28.136Z,99822.53
2023-07-19T03:57:58.799Z,99817.16
2023-07-19T04:00:28.264Z,99811.88
2023-07-19T04:02:57.113Z,99818.63
2023-07-19T04:05:25.679Z,99820.75
2023-07-19T04:07:55.690Z,99822.34
2023-07-19T04:10:24.688Z,99831.56
2023-07-19T04:12:52.630Z,99835.00
2023-07-19T04:15:23.380Z,99827.44
2023-07-19T04:17:51.480Z,99828.41
2023-07-19T04:20:19.665Z,99810.78
2023-07-19T04:22:48.153Z,99816.88
2023-07-19T04:25:16.267Z,99824.16
2023-07-19T04:27:44.272Z,99820.13
2023-07-19T04:30:13.432Z,99832.78
2023-07-19T04:32:43.765Z,99815.47
2023-07-19T04:35:12.436Z,99820.53
2023-07-19T04:37:41.229Z,99812.78
2023-07-19T04:40:11.036Z,99804.69
2023-07-19T04:42:41.219Z,99809.94
2023-07-19T04:45:11.383Z,99809.78
2023-07-19T04:47:40.021Z,99810.44
2023-07-19T04:50:12.261Z,99815.66
2023-07-19T04:52:40.926Z,99818.38
2023-07-19T04:55:10.044Z,99823.25
2023-07-19T04:57:39.896Z,99823.25
2023-07-19T05:00:12.989Z,99828.81
2023-07-19T05:02:42.251Z,99827.63
2023-07-19T05:05:13.406Z,99826.28
2023-07-19T05:07:42.786Z,99820.38
2023-07-19T05:10:11.529Z,99824.41
2023-07-19T05:12:40.842Z,99822.25
2023-07-19T05:15:10.058Z,99813.81
2023-07-19T05:17:38.518Z,99820.38
2023-07-19T05:20:09.746Z,99823.22
2023-07-19T05:22:39.850Z,99828.63
2023-07-19T05:25:10.648Z,99823.81
2023-07-19T05:27:38.641Z,99832.78
2023-07-19T05:30:07.730Z,99824.06
2023-07-19T05:32:35.847Z,99823.84
2023-07-19T05:35:03.868Z,99825.22
2023-07-19T05:37:32.270Z,99839.38
2023-07-19T05:40:01.995Z,99832.59
2023-07-19T05:42:29.973Z,99831.91
2023-07-19T05:44:57.999Z,99825.66
2023-07-19T05:47:28.713Z,99835.09
2023-07-19T05:49:57.928Z,99831.56
2023-07-19T05:52:28.871Z,99839.97
2023-07-19T05:54:57.207Z,99838.41
2023-07-19T05:57:26.598Z,99836.63
2023-07-19T06:00:00.817Z,99840.31
2023-07-19T06:02:53.343Z,99841.94
2023-07-19T06:05:24.150Z,99832.38
2023-07-19T06:07:53.340Z,99831.22
2023-07-19T06:10:22.468Z,99824.81
2023-07-19T06:12:53.240Z,99834.06
2023-07-19T06:15:21.757Z,99830.16
2023-07-19T06:17:50.191Z,99830.75
2023-07-19T06:20:18.262Z,99825.34
2023-07-19T06:22:47.474Z,99821.69
2023-07-19T06:25:16.081Z,99818.41
2023-07-19T06:27:44.728Z,99830.06
2023-07-19T06:30:15.588Z,99838.38
2023-07-19T06:32:44.128Z,99836.69
2023-07-19T06:35:13.404Z,99839.06
2023-07-19T06:37:42.011Z,99842.16
2023-07-19T06:40:11.032Z,99834.16
2023-07-19T06:42:39.752Z,99833.81
2023-07-19T06:45:08.720Z,99823.81
2023-07-19T06:47:39.093Z,99822.97
2023-07-19T06:50:08.613Z,99830.13
2023-07-19T06:52:37.080Z,99827.72
2023-07-19T06:55:06.190Z,99834.16
2023-07-19T06:57:34.753Z,99848.31
2023-07-19T07:00:04.354Z,99850.63
2023-07-19T07:02:32.396Z,99838.72
2023-07-19T07:05:02.917Z,99844.13
2023-07-19T07:07:30.886Z,99845.09
2023-07-19T07:09:59.256Z,99838.91
2023-07-19T07:12:28.202Z,99848.53
2023-07-19T07:14:56.126Z,99838.06
2023-07-19T07:17:24.712Z,99840.72
2023-07-19T07:19:54.850Z,99834.50
2023-07-19T07:22:24.420Z,99843.13
2023-07-19T07:24:52.356Z,99844.84
2023-07-19T07:27:20.568Z,99837.91
2023-07-19T07:29:48.558Z,99845.09
2023-07-19T07:32:16.583Z,99853.50
2023-07-19T07:34:45.074Z,99860.94
2023-07-19T07:37:13.218Z,99855.69
2023-07-19T07:39:43.033Z,99858.66
2023-07-19T07:42:11.704Z,99853.41
2023-07-19T07:44:39.707Z,99856.81
2023-07-19T07:47:09.375Z,99865.91
2023-07-19T07:49:37.373Z,99855.50
2023-07-19T07:52:06.895Z,99867.00
2023-07-19T07:54:35.065Z,99862.97
2023-07-19T07:57:05.251Z,99870.97
2023-07-19T07:59:33.664Z,99870.31
2023-07-19T08:02:04.475Z,99869.22
2023-07-19T08:04:35.880Z,99874.69
2023-07-19T08:07:03.950Z,99863.28
2023-07-19T08:09:32.377Z,99870.09
2023-07-19T08:12:00.798Z,99867.47
2023-07-19T08:14:30.105Z,99860.03
2023-07-19T08:17:01.360Z,99850.19
2023-07-19T08:19:30.726Z,99855.84
2023-07-19T08:22:07.596Z,99858.25
2023-07-19T08:24:36.000Z,99863.09
2023-07-19T08:27:04.195Z,99864.13
2023-07-19T08:29:34.413Z,99857.38
2023-07-19T08:32:02.335Z,99861.63
2023-07-19T08:34:30.740Z,99860.22
2023-07-19T08:36:58.748Z,99861.41
2023-07-19T08:39:28.772Z,99864.38
2023-07-19T08:41:56.771Z,99854.25
2023-07-19T08:44:25.224Z,99863.91
2023-07-19T08:46:54.818Z,99858.72
2023-07-19T08:49:23.911Z,99868.22
2023-07-19T08:51:52.173Z,99856.75
2023-07-19T08:54:20.197Z,99864.81
2023-07-19T08:56:48.704Z,99865.03
2023-07-19T08:59:16.676Z,99863.06
2023-07-19T09:01:45.295Z,99862.88
2023-07-19T09:04:15.773Z,99862.09
2023-07-19T09:06:45.363Z,99863.63
2023-07-19T09:09:15.254Z,99858.19
2023-07-19T09:11:45.055Z,99857.06
2023-07-19T09:14:13.059Z,99849.59
2023-07-19T09:16:41.521Z,99854.34
2023-07-19T09:19:10.933Z,99842.53
2023-07-19T09:21:43.278Z,99853.94
2023-07-19T09:24:13.044Z,99841.13
2023-07-19T09:26:50.766Z,99836.47
2023-07-19T09:29:20.168Z,99845.09
2023-07-19T09:31:55.840Z,99837.66
2023-07-19T09:34:24.948Z,99839.22
2023-07-19T09:36:54.912Z,99840.81
2023-07-19T09:39:24.191Z,99839.44
2023-07-19T09:41:53.752Z,99843.28
2023-07-19T09:44:23.322Z,99836.34
2023-07-19T09:46:51.967Z,99831.97
2023-07-19T09:49:19.918Z,99843.88
2023-07-19T09:51:51.112Z,99838.88
2023-07-19T09:54:20.536Z,99832.84
2023-07-19T09:56:48.508Z,99832.31
2023-07-19T09:59:21.037Z,99828.25
2023-07-19T10:01:50.660Z,99825.94
2023-07-19T10:04:26.488Z,99822.50
2023-07-19T10:07:08.753Z,99818.63
2023-07-19T10:09:43.494Z,99813.84
2023-07-19T10:12:26.501Z,99827.00
2023-07-19T10:14:58.689Z,99814.72
2023-07-19T10:17:26.956Z,99805.69
2023-07-19T10:20:09.574Z,99803.41
2023-07-19T10:22:54.012Z,99796.44
2023-07-19T10:25:28.721Z,99797.16
2023-07-19T10:28:02.291Z,99798.91
2023-07-19T10:30:55.927Z,99793.50
2023-07-19T10:33:25.887Z,99792.53
2023-07-19T10:35:55.928Z,99792.56
2023-07-19T10:38:25.332Z,99796.44
2023-07-19T10:41:02.149Z,99791.88
2023-07-19T10:43:46.925Z,99797.75
2023-07-19T10:46:20.189Z,99794.81
2023-07-19T10:48:52.012Z,99806.69
2023-07-19T10:51:21.448Z,99809.75
2023-07-19T10:53:58.904Z,99801.59
2023-07-19T10:56:29.875Z,99805.94
2023-07-19T10:59:02.553Z,99806.03
2023-07-19T11:01:32.258Z,99804.06
2023-07-19T11:04:06.518Z,99804.94
2023-07-19T11:06:34.889Z,99804.59
2023-07-19T11:09:07.950Z,99797.94
2023-07-19T11:11:41.794Z,99794.22
2023-07-19T11:14:09.779Z,99800.06
2023-07-19T11:16:38.920Z,99804.44
2023-07-19T11:19:06.937Z,99800.72
2023-07-19T11:21:35.712Z,99796.41
2023-07-19T11:24:04.251Z,99791.63
2023-07-19T11:26:32.357Z,99791.00
2023-07-19T11:29:02.245Z,99793.34
2023-07-19T11:31:32.918Z,99797.13
2023-07-19T11:34:08.875Z,99795.66
2023-07-19T11:36:40.995Z,99789.16
2023-07-19T11:39:15.815Z,99782.88
2023-07-19T11:41:43.897Z,99788.69
2023-07-19T11:44:17.500Z,99782.00
2023-07-19T11:46:45.461Z,99784.13
2023-07-19T11:49:14.562Z,99777.00
2023-07-19T11:51:43.145Z,99781.41
2023-07-19T11:54:12.129Z,99788.00
2023-07-19T11:56:40.112Z,99793.38
2023-07-19T11:59:08.118Z,99787.75
2023-07-19T12:01:38.504Z,99789.03
2023-07-19T12:04:06.561Z,99787.53
2023-07-19T12:06:35.526Z,99792.72
2023-07-19T12:09:04.159Z,99785.94
2023-07-19T12:11:32.171Z,99788.19
2023-07-19T12:14:01.462Z,99790.66
2023-07-19T12:16:29.965Z,99777.09
2023-07-19T12:18:59.804Z,99777.91
2023-07-19T12:21:28.479Z,99780.06
2023-07-19T12:23:59.598Z,99776.00
2023-07-19T12:28:59.842Z,99775.19
2023-07-19T12:31:27.947Z,99772.91
2023-07-19T12:33:57.968Z,99767.13
2023-07-19T12:36:28.212Z,99766.75
2023-07-19T12:38:57.665Z,99767.09
2023-07-19T12:41:26.180Z,99766.91
2023-07-19T12:43:54.158Z,99756.00
2023-07-19T12:46:23.854Z,99751.16
2023-07-19T12:48:52.248Z,99745.16
2023-07-19T12:51:21.622Z,99749.72
2023-07-19T12:53:51.486Z,99747.28
2023-07-19T12:56:19.678Z,99743.41
2023-07-19T12:58:48.302Z,99747.81
2023-07-19T13:01:16.449Z,99744.03
2023-07-19T13:03:45.433Z,99735.06
2023-07-19T13:06:14.017Z,99743.03
2023-07-19T13:08:42.177Z,99743.91
2023-07-19T13:11:12.587Z,99743.97
2023-07-19T13:13:41.071Z,99729.19
2023-07-19T13:16:09.018Z,99739.63
2023-07-19T13:18:37.973Z,99730.56
2023-07-19T13:21:06.557Z,99736.19
2023-07-19T13:23:34.726Z,99733.31
2023-07-19T13:26:02.736Z,99735.69
2023-07-19T13:28:32.640Z,99728.41
2023-07-19T13:31:01.332Z,99728.63
2023-07-19T13:33:30.718Z,99730.97
2023-07-19T13:35:59.178Z,99739.13
2023-07-19T13:38:28.763Z,99735.09
2023-07-19T13:40:57.801Z,99728.31
2023-07-19T13:43:25.761Z,99717.97
2023-07-19T13:45:55.650Z,99708.56
2023-07-19T13:48:24.593Z,99704.81
2023-07-19T13:50:52.655Z,99708.28
2023-07-19T13:53:21.424Z,99706.91
2023-07-19T13:55:49.989Z,99704.66
2023-07-19T13:58:18.029Z,99703.09
2023-07-19T14:00:46.529Z,99705.72
2023-07-19T14:03:17.928Z,99706.06
2023-07-19T14:05:45.912Z,99704.25
2023-07-19T14:08:15.395Z,99698.19
2023-07-19T14:10:44.015Z,99705.53
2023-07-19T14:16:04.751Z,99704.47
2023-07-19T14:18:36.147Z,99698.22
2023-07-19T14:21:10.117Z,99690.47
2023-07-19T14:23:39.913Z,99691.16
2023-07-19T14:26:07.902Z,99706.75
2023-07-19T14:28:36.861Z,99692.91
2023-07-19T14:31:05.506Z,99695.06
2023-07-19T14:33:35.073Z,99683.22
2023-07-19T14:36:04.871Z,99695.66
2023-07-19T14:38:34.922Z,99689.69
2023-07-19T14:41:03.650Z,99688.63
2023-07-19T14:43:32.216Z,99692.19
2023-07-19T14:46:00.288Z,99675.06
2023-07-19T14:48:29.225Z,99687.41
2023-07-19T14:50:58.641Z,99676.00
2023-07-19T14:53:27.717Z,99678.16
2023-07-19T14:55:56.569Z,99683.06
2023-07-19T14:58:24.658Z,99675.59
2023-07-19T15:00:56.499Z,99668.06
2023-07-19T15:05:58.299Z,99674.63
2023-07-19T15:08:27.312Z,99661.78
2023-07-19T15:10:57.016Z,99669.31
2023-07-19T15:13:25.728Z,99673.75
2023-07-19T15:15:56.159Z,99676.47
2023-07-19T15:18:28.172Z,99670.75
2023-07-19T15:20:58.071Z,99678.75
2023-07-19T15:23:27.218Z,99674.19
2023-07-19T15:25:55.496Z,99672.53
2023-07-19T15:28:29.820Z,99675.44
2023-07-19T15:30:59.636Z,99672.91
2023-07-19T15:33:27.831Z,99674.19
2023-07-19T15:35:59.998Z,99681.72
2023-07-19T15:38:41.244Z,99681.72
2023-07-19T15:41:09.625Z,99682.53
2023-07-19T15:43:38.499Z,99684.22
2023-07-19T15:46:07.478Z,99685.03
2023-07-19T15:48:37.736Z,99695.16
2023-07-19T15:51:06.535Z,99692.53
2023-07-19T15:53:37.411Z,99698.47
2023-07-19T15:56:09.143Z,99698.66
2023-07-19T15:58:37.327Z,99691.06
2023-07-19T16:01:07.483Z,99700.84
2023-07-19T16:03:37.167Z,99691.63
2023-07-19T16:06:07.944Z,99704.69
2023-07-19T16:08:38.335Z,99706.09
2023-07-19T16:11:07.498Z,99726.72
2023-07-19T16:13:36.755Z,99716.59
2023-07-19T16:16:05.524Z,99727.84
2023-07-19T16:18:34.980Z,99731.09
2023-07-19T16:21:03.679Z,99741.28
2023-07-19T16:23:32.628Z,99744.25
2023-07-19T16:26:00.632Z,99764.16
2023-07-19T16:28:30.620Z,99778.03
2023-07-19T16:30:58.722Z,99774.50
2023-07-19T16:33:27.951Z,99773.50
2023-07-19T16:35:55.966Z,99761.03
2023-07-19T16:38:24.913Z,99754.00
2023-07-19T16:40:52.900Z,99742.69
2023-07-19T16:43:24.799Z,99736.97
2023-07-19T16:45:55.716Z,99726.84
2023-07-19T16:48:23.612Z,99730.16
2023-07-19T16:50:52.026Z,99726.72
2023-07-19T16:53:21.804Z,99733.16
2023-07-19T16:55:49.873Z,99736.34
2023-07-19T16:58:18.553Z,99724.91
2023-07-19T17:00:47.013Z,99728.84
2023-07-19T17:03:16.937Z,99727.47
2023-07-19T17:05:45.864Z,99732.69
2023-07-19T17:08:14.387Z,99728.81
2023-07-19T17:10:43.392Z,99726.78
2023-07-19T17:13:11.890Z,99724.47
2023-07-19T17:15:40.158Z,99725.84
2023-07-19T17:18:10.094Z,99736.38
2023-07-19T17:20:41.326Z,99727.16
2023-07-19T17:23:24.780Z,99733.47
2023-07-19T17:26:22.790Z,99732.41
2023-07-19T17:28:51.856Z,99733.09
2023-07-19T17:31:21.210Z,99729.94
2023-07-19T17:33:52.349Z,99736.19
2023-07-19T17:36:22.587Z,99735.13
2023-07-19T17:38:50.961Z,99731.25
2023-07-19T17:41:20.192Z,99750.25
2023-07-19T17:43:49.640Z,99740.03
2023-07-19T17:46:20.730Z,99745.44
2023-07-19T17:48:52.489Z,99746.25
2023-07-19T17:51:23.084Z,99743.97
2023-07-19T17:53:51.647Z,99741.97
2023-07-19T17:56:19.777Z,99747.38
2023-07-19T17:58:47.822Z,99751.75
2023-07-19T18:01:17.181Z,99751.22
2023-07-19T18:03:45.516Z,99752.38
2023-07-19T18:06:13.620Z,99755.13
2023-07-19T18:08:43.031Z,99755.19
2023-07-19T18:11:11.129Z,99764.63
2023-07-19T18:13:39.580Z,99767.31
2023-07-19T18:16:08.007Z,99768.47
2023-07-19T18:18:35.977Z,99770.00
2023-07-19T18:21:04.171Z,99765.66
2023-07-19T18:23:32.889Z,99772.63
2023-07-19T18:26:02.278Z,99771.06
2023-07-19T18:28:30.697Z,99777.81
2023-07-19T18:30:58.819Z,99792.19
2023-07-19T18:33:27.363Z,99791.72
2023-07-19T18:35:55.352Z,99786.31
2023-07-19T18:38:23.879Z,99793.25
2023-07-19T18:40:52.048Z,99794.06
2023-07-19T18:43:21.429Z,99793.06
2023-07-19T18:45:50.106Z,99792.72
2023-07-19T18:48:18.506Z,99796.75
2023-07-19T18:50:46.997Z,99795.59
2023-07-19T18:53:16.109Z,99795.78
2023-07-19T18:55:44.444Z,99798.97
2023-07-19T18:58:13.153Z,99801.69
2023-07-19T19:00:42.666Z,99813.78
2023-07-19T19:03:11.360Z,99808.91
2023-07-19T19:05:42.181Z,99811.44
2023-07-19T19:08:10.316Z,99800.81
2023-07-19T19:10:39.206Z,99805.53
2023-07-19T19:13:07.272Z,99825.09
2023-07-19T19:15:36.129Z,99820.91
2023-07-19T19:18:05.601Z,99817.53
2023-07-19T19:20:33.730Z,99829.34
2023-07-19T19:23:03.069Z,99828.97
2023-07-19T19:25:33.081Z,99839.94
2023-07-19T19:28:02.275Z,99841.78
2023-07-19T19:30:31.506Z,99835.06
2023-07-19T19:33:00.302Z,99833.19
2023-07-19T19:35:29.773Z,99834.03
2023-07-19T19:37:57.734Z,99827.28
2023-07-19T19:40:26.321Z,99834.31
2023-07-19T19:42:54.380Z,99835.69
2023-07-19T19:45:23.457Z,99840.03
2023-07-19T19:47:51.486Z,99832.63
2023-07-19T19:50:19.448Z,99830.97
2023-07-19T19:52:59.264Z,99838.53
2023-07-19T19:58:08.507Z,99826.25
2023-07-19T20:00:36.502Z,99827.44
2023-07-19T20:08:08.967Z,99839.41
2023-07-19T20:10:38.108Z,99843.75
2023-07-19T20:13:06.778Z,99849.00
2023-07-19T20:15:47.838Z,99846.28
2023-07-19T20:20:47.957Z,99841.91
2023-07-19T20:23:17.400Z,99845.78
2023-07-19T20:26:01.111Z,99848.63
2023-07-19T20:28:34.627Z,99848.31
2023-07-19T20:31:06.414Z,99845.94
2023-07-19T20:33:35.835Z,99847.44
2023-07-19T20:36:05.669Z,99837.84
2023-07-19T20:43:39.024Z,99829.53
2023-07-19T20:46:07.588Z,99837.28
2023-07-19T20:48:38.415Z,99844.03
2023-07-19T20:51:11.360Z,99839.63
2023-07-19T20:53:41.141Z,99837.72
2023-07-19T20:56:10.086Z,99842.56
2023-07-19T20:58:38.755Z,99852.13
2023-07-19T21:01:07.350Z,99846.75
2023-07-19T21:03:35.875Z,99848.47
2023-07-19T21:06:03.907Z,99849.28
2023-07-19T21:08:31.998Z,99851.84
2023-07-19T21:11:01.509Z,99854.00
2023-07-19T21:13:29.649Z,99853.47
2023-07-19T21:15:58.477Z,99858.03
2023-07-19T21:18:26.481Z,99852.13
2023-07-19T21:20:55.009Z,99861.94
2023-07-19T21:23:23.331Z,99849.44
2023-07-19T21:25:51.270Z,99847.56
2023-07-19T21:28:21.301Z,99847.72
2023-07-19T21:30:49.852Z,99842.03
2023-07-19T21:33:18.378Z,99853.47
2023-07-19T21:35:46.312Z,99851.78
2023-07-19T21:38:14.960Z,99847.78
2023-07-19T21:40:44.085Z,99856.53
2023-07-19T21:43:12.089Z,99859.56
2023-07-19T21:45:42.953Z,99858.56
2023-07-19T21:48:11.040Z,99858.88
2023-07-19T21:50:43.594Z,99860.75
2023-07-19T21:53:13.067Z,99862.44
2023-07-19T21:55:42.147Z,99860.09
2023-07-19T21:58:11.133Z,99864.50
2023-07-19T22:00:41.592Z,99875.09
2023-07-19T22:03:13.189Z,99872.41
2023-07-19T22:05:42.382Z,99878.47
2023-07-19T22:08:10.625Z,99877.09
2023-07-19T22:10:39.130Z,99874.06
2023-07-19T22:13:08.505Z,99868.16
2023-07-19T22:15:37.128Z,99876.38
2023-07-19T22:18:18.272Z,99876.19
2023-07-19T22:20:49.012Z,99872.44
2023-07-19T22:23:17.364Z,99867.63
2023-07-19T22:25:46.270Z,99870.34
2023-07-19T22:28:15.792Z,99873.22
2023-07-19T22:30:44.951Z,99875.41
2023-07-19T22:33:15.443Z,99880.91
2023-07-19T22:35:43.485Z,99882.66
2023-07-19T22:38:11.501Z,99870.13
2023-07-19T22:40:40.713Z,99881.28
2023-07-19T22:43:08.721Z,99875.56
2023-07-19T22:45:37.188Z,99874.97
2023-07-19T22:48:08.461Z,99876.19
2023-07-19T22:50:38.962Z,99878.00
2023-07-19T22:53:07.022Z,99872.53
2023-07-19T22:55:35.461Z,99864.06
2023-07-19T22:58:04.343Z,99861.28
2023-07-19T23:00:32.659Z,99871.81
2023-07-19T23:03:01.296Z,99870.66
2023-07-19T23:05:29.446Z,99870.59
2023-07-19T23:07:59.374Z,99872.97
2023-07-19T23:10:27.809Z,99870.84
2023-07-19T23:12:55.771Z,99881.34
2023-07-19T23:15:24.511Z,99874.09
2023-07-19T23:17:53.820Z,99871.34
2023-07-19T23:20:23.023Z,99872.34
2023-07-19T23:22:51.161Z,99868.97
2023-07-19T23:25:20.749Z,99875.69
2023-07-19T23:27:49.607Z,99873.97
2023-07-19T23:30:17.905Z,99870.50
2023-07-19T23:32:46.419Z,99874.34
2023-07-19T23:35:14.453Z,99878.38
2023-07-19T23:37:42.938Z,99875.03
2023-07-19T23:40:12.140Z,99883.75
2023-07-19T23:42:41.492Z,99885.06
2023-07-19T23:45:10.949Z,99884.88
2023-07-19T23:47:38.983Z,99887.56
2023-07-19T23:50:08.662Z,99879.97
2023-07-19T23:52:37.251Z,99873.22
2023-07-19T23:55:06.300Z,99875.59
2023-07-19T23:57:34.950Z,99879.94
